Flood From: 19-02-2018 16:00 Until: 20-02-2018 16:00 warning for: Flood Level: Yellow info button

Although rather usual in this region, locally or potentially dangerous phenomena are expected. (such as local winds, summer thunderstorms, rising streams or high waves) Be aware and pay attention to the latest weather updates, especially if you carry out activities exposed to weather or close to a stream or shoreline. 


Meteo18 Weather Cam more information Meteo18 Weather Cam


Thunder radar more information blitzortung!


Rain radar more information rain snow radar


Visit our other weather sites:

Template documentation
and downloads

And another site



Weather Underground History page Text

Daily Summary for December 18, 2017 Units:  Both    English   Metric
« Previous Day
Next Day »
Daily Weekly Monthly Yearly Custom
  High: Low: Average:
Temperature: TemperatureC °F /  -17.8 °C 3.1 °F /  -16.1 °C 6 °F /  -14.4 °C
Dew Point: DewpointC °F /  -17.8 °C 2.5 °F /  -16.4 °C 4.5 °F /  -15.3 °C
Humidity: Humidity % 75 % 90 %
Wind Speed: WindSpeedKMH mph /  0 km/h - 9.1 mph /  14.6 km/h
Wind Gust: WindSpeedGustKMH mph /  0 km/h - -
Wind:- - South
Pressure: PressurehPa in /  0 hPa 1021.9 in /  34601.5 hPa -
Precipitation: 10.2 in /  259.08 mm    
Historical Graphs
 
 
Tabular Data for December 18, 2017
Time Temperature Dew Point Pressure Wind Wind Speed Wind Gust Humidity Rainfall Rate (Hourly)
TemperatureC °F /  -17.8 °C DewpointC °F /  -17.8 °C PressurehPa in /  0 hPa Calm     Humidity % HourlyPrecipMM in /  0 mm
00:02 3.1 °F /  -16.1 °C 2.5 °F /  -16.4 °C 1028.3 in /  34818.2 hPa SSW 4.8 mph /  7.7 km/h 6.4 mph /  10.3 km/h 96 % 0.0 in /  0 mm
00:07 3.1 °F /  -16.1 °C 2.5 °F /  -16.4 °C 1028.3 in /  34818.2 hPa SW 4.8 mph /  7.7 km/h 8.0 mph /  12.9 km/h 96 % 0.0 in /  0 mm
00:12 3.1 °F /  -16.1 °C 2.5 °F /  -16.4 °C 1028.3 in /  34818.2 hPa SW 4.8 mph /  7.7 km/h 9.7 mph /  15.6 km/h 96 % 0.0 in /  0 mm
00:17 3.1 °F /  -16.1 °C 2.5 °F /  -16.4 °C 1028.3 in /  34818.2 hPa SW 6.4 mph /  10.3 km/h 9.7 mph /  15.6 km/h 96 % 0.0 in /  0 mm
00:22 3.1 °F /  -16.1 °C 2.5 °F /  -16.4 °C 1028.3 in /  34818.2 hPa SSW 3.2 mph /  5.1 km/h 9.7 mph /  15.6 km/h 96 % 0.3 in /  7.62 mm
00:27 3.1 °F /  -16.1 °C 2.5 °F /  -16.4 °C 1028.3 in /  34818.2 hPa SSW 4.8 mph /  7.7 km/h 9.7 mph /  15.6 km/h 96 % 0.3 in /  7.62 mm
00:32 3.1 °F /  -16.1 °C 2.5 °F /  -16.4 °C 1028.0 in /  34808.1 hPa SSW 3.2 mph /  5.1 km/h 9.7 mph /  15.6 km/h 96 % 0.3 in /  7.62 mm
00:37 3.2 °F /  -16 °C 2.6 °F /  -16.3 °C 1028.0 in /  34808.1 hPa South 4.8 mph /  7.7 km/h 6.4 mph /  10.3 km/h 96 % 0.3 in /  7.62 mm
00:42 3.3 °F /  -15.9 °C 2.7 °F /  -16.3 °C 1028.0 in /  34808.1 hPa SW 9.7 mph /  15.6 km/h 12.9 mph /  20.8 km/h 96 % 0.3 in /  7.62 mm
00:47 3.3 °F /  -15.9 °C 2.7 °F /  -16.3 °C 1028.0 in /  34808.1 hPa WSW 8.0 mph /  12.9 km/h 12.9 mph /  20.8 km/h 96 % 0.3 in /  7.62 mm
00:52 3.3 °F /  -15.9 °C 2.9 °F /  -16.2 °C 1027.7 in /  34797.9 hPa SW 6.4 mph /  10.3 km/h 12.9 mph /  20.8 km/h 97 % 0.3 in /  7.62 mm
01:02 3.4 °F /  -15.9 °C 3.0 °F /  -16.1 °C 1027.7 in /  34797.9 hPa WSW 9.7 mph /  15.6 km/h 12.9 mph /  20.8 km/h 97 % 0.3 in /  7.62 mm
01:07 3.4 °F /  -15.9 °C 3.0 °F /  -16.1 °C 1027.7 in /  34797.9 hPa SSW 8.0 mph /  12.9 km/h 14.5 mph /  23.3 km/h 97 % 0.3 in /  7.62 mm
01:12 3.5 °F /  -15.8 °C 3.1 °F /  -16.1 °C 1027.7 in /  34797.9 hPa SW 9.7 mph /  15.6 km/h 14.5 mph /  23.3 km/h 97 % 0.3 in /  7.62 mm
01:17 3.5 °F /  -15.8 °C 3.1 °F /  -16.1 °C 1027.3 in /  34784.4 hPa SW 6.4 mph /  10.3 km/h 14.5 mph /  23.3 km/h 97 % 0.0 in /  0 mm
01:22 3.6 °F /  -15.8 °C 3.2 °F /  -16 °C 1027.3 in /  34784.4 hPa SW 12.9 mph /  20.8 km/h 12.9 mph /  20.8 km/h 97 % 0.0 in /  0 mm
01:27 3.6 °F /  -15.8 °C 3.2 °F /  -16 °C 1027.3 in /  34784.4 hPa SW 11.3 mph /  18.2 km/h 12.9 mph /  20.8 km/h 97 % 0.0 in /  0 mm
01:32 3.6 °F /  -15.8 °C 3.2 °F /  -16 °C 1027.3 in /  34784.4 hPa SW 8.0 mph /  12.9 km/h 12.9 mph /  20.8 km/h 97 % 0.0 in /  0 mm
01:42 3.7 °F /  -15.7 °C 3.3 °F /  -15.9 °C 1027.3 in /  34784.4 hPa SW 3.2 mph /  5.1 km/h 16.1 mph /  25.9 km/h 97 % 0.3 in /  7.62 mm
01:52 3.8 °F /  -15.7 °C 3.4 °F /  -15.9 °C 1027.0 in /  34774.2 hPa SW 4.8 mph /  7.7 km/h 11.3 mph /  18.2 km/h 97 % 0.3 in /  7.62 mm
01:57 3.8 °F /  -15.7 °C 3.4 °F /  -15.9 °C 1027.0 in /  34774.2 hPa SW 4.8 mph /  7.7 km/h 14.5 mph /  23.3 km/h 97 % 0.3 in /  7.62 mm
02:02 3.8 °F /  -15.7 °C 3.4 °F /  -15.9 °C 1027.0 in /  34774.2 hPa SW 6.4 mph /  10.3 km/h 14.5 mph /  23.3 km/h 97 % 0.3 in /  7.62 mm
02:12 3.9 °F /  -15.6 °C 3.5 °F /  -15.8 °C 1026.6 in /  34760.7 hPa SW 8.0 mph /  12.9 km/h 11.3 mph /  18.2 km/h 97 % 0.5 in /  12.7 mm
02:17 3.9 °F /  -15.6 °C 3.5 °F /  -15.8 °C 1026.6 in /  34760.7 hPa SSW 3.2 mph /  5.1 km/h 11.3 mph /  18.2 km/h 97 % 0.5 in /  12.7 mm
02:22 3.9 °F /  -15.6 °C 3.5 °F /  -15.8 °C 1026.3 in /  34750.5 hPa SSW 3.2 mph /  5.1 km/h 11.3 mph /  18.2 km/h 97 % 0.5 in /  12.7 mm
02:32 4.0 °F /  -15.6 °C 3.6 °F /  -15.8 °C 1026.3 in /  34750.5 hPa South 3.2 mph /  5.1 km/h 9.7 mph /  15.6 km/h 97 % 0.8 in /  20.32 mm
02:37 4.1 °F /  -15.5 °C 3.7 °F /  -15.7 °C 1026.3 in /  34750.5 hPa SW 1.6 mph /  2.6 km/h 8.0 mph /  12.9 km/h 97 % 0.5 in /  12.7 mm
02:42 4.1 °F /  -15.5 °C 3.7 °F /  -15.7 °C 1026.3 in /  34750.5 hPa SW 1.6 mph /  2.6 km/h 6.4 mph /  10.3 km/h 97 % 0.8 in /  20.32 mm
02:47 4.2 °F /  -15.4 °C 3.8 °F /  -15.7 °C 1026.6 in /  34760.7 hPa Calm   6.4 mph /  10.3 km/h 97 % 1.0 in /  25.4 mm
02:52 4.2 °F /  -15.4 °C 3.8 °F /  -15.7 °C 1026.3 in /  34750.5 hPa SSE 1.6 mph /  2.6 km/h 4.8 mph /  7.7 km/h 97 % 1.0 in /  25.4 mm
02:57 4.3 °F /  -15.4 °C 3.9 °F /  -15.6 °C 1026.0 in /  34740.4 hPa SSW 1.6 mph /  2.6 km/h 6.4 mph /  10.3 km/h 97 % 1.3 in /  33.02 mm
03:02 4.4 °F /  -15.3 °C 4.0 °F /  -15.6 °C 1026.0 in /  34740.4 hPa SSW 3.2 mph /  5.1 km/h 6.4 mph /  10.3 km/h 97 % 1.5 in /  38.1 mm
03:07 4.5 °F /  -15.3 °C 4.1 °F /  -15.5 °C 1025.6 in /  34726.8 hPa SW 6.4 mph /  10.3 km/h 9.7 mph /  15.6 km/h 97 % 1.3 in /  33.02 mm
03:12 4.6 °F /  -15.2 °C 4.2 °F /  -15.4 °C 1025.6 in /  34726.8 hPa SSW 8.0 mph /  12.9 km/h 9.7 mph /  15.6 km/h 97 % 1.5 in /  38.1 mm
03:17 4.7 °F /  -15.2 °C 4.3 °F /  -15.4 °C 1025.6 in /  34726.8 hPa SW 8.0 mph /  12.9 km/h 8.0 mph /  12.9 km/h 97 % 1.3 in /  33.02 mm
03:22 4.8 °F /  -15.1 °C 4.4 °F /  -15.3 °C 1025.6 in /  34726.8 hPa SW 3.2 mph /  5.1 km/h 8.0 mph /  12.9 km/h 97 % 1.5 in /  38.1 mm
03:32 5.0 °F /  -15 °C 4.6 °F /  -15.2 °C 1025.6 in /  34726.8 hPa SW 4.8 mph /  7.7 km/h 9.7 mph /  15.6 km/h 97 % 1.8 in /  45.72 mm
03:37 5.1 °F /  -14.9 °C 4.7 °F /  -15.2 °C 1025.6 in /  34726.8 hPa WSW 6.4 mph /  10.3 km/h 9.7 mph /  15.6 km/h 97 % 1.8 in /  45.72 mm
03:42 5.1 °F /  -14.9 °C 4.7 °F /  -15.2 °C 1025.3 in /  34716.7 hPa SW 4.8 mph /  7.7 km/h 9.7 mph /  15.6 km/h 97 % 2.0 in /  50.8 mm
03:47 5.2 °F /  -14.9 °C 4.8 °F /  -15.1 °C 1025.3 in /  34716.7 hPa SW 4.8 mph /  7.7 km/h 11.3 mph /  18.2 km/h 97 % 2.0 in /  50.8 mm
03:52 5.2 °F /  -14.9 °C 4.8 °F /  -15.1 °C 1024.9 in /  34703.1 hPa WSW 6.4 mph /  10.3 km/h 11.3 mph /  18.2 km/h 97 % 2.3 in /  58.42 mm
04:02 5.2 °F /  -14.9 °C 4.8 °F /  -15.1 °C 1024.6 in /  34693 hPa SSW 12.9 mph /  20.8 km/h 14.5 mph /  23.3 km/h 97 % 2.3 in /  58.42 mm
04:12 5.3 °F /  -14.8 °C 4.9 °F /  -15.1 °C 1024.3 in /  34682.8 hPa SSW 6.4 mph /  10.3 km/h 17.7 mph /  28.5 km/h 97 % 2.8 in /  71.12 mm
04:18 5.3 °F /  -14.8 °C 4.9 °F /  -15.1 °C 1023.9 in /  34669.3 hPa SSW 19.3 mph /  31.1 km/h 19.3 mph /  31.1 km/h 97 % 3.0 in /  76.2 mm
04:27 5.4 °F /  -14.8 °C 5.0 °F /  -15 °C 1023.6 in /  34659.1 hPa SSW 19.3 mph /  31.1 km/h 20.9 mph /  33.6 km/h 97 % 3.3 in /  83.82 mm
04:32 5.4 °F /  -14.8 °C 5.0 °F /  -15 °C 1023.6 in /  34659.1 hPa SW 8.0 mph /  12.9 km/h 20.9 mph /  33.6 km/h 97 % 3.3 in /  83.82 mm
04:37 5.5 °F /  -14.7 °C 5.1 °F /  -14.9 °C 1023.2 in /  34645.6 hPa WSW 17.7 mph /  28.5 km/h 22.5 mph /  36.2 km/h 97 % 3.3 in /  83.82 mm
04:42 5.5 °F /  -14.7 °C 5.1 °F /  -14.9 °C 1023.2 in /  34645.6 hPa WSW 11.3 mph /  18.2 km/h 22.5 mph /  36.2 km/h 97 % 3.3 in /  83.82 mm
04:52 5.6 °F /  -14.7 °C 5.2 °F /  -14.9 °C 1023.2 in /  34645.6 hPa SW 8.0 mph /  12.9 km/h 20.9 mph /  33.6 km/h 97 % 3.3 in /  83.82 mm
04:57 5.7 °F /  -14.6 °C 5.3 °F /  -14.8 °C 1023.2 in /  34645.6 hPa WSW 9.7 mph /  15.6 km/h 20.9 mph /  33.6 km/h 97 % 3.3 in /  83.82 mm
05:02 5.7 °F /  -14.6 °C 5.3 °F /  -14.8 °C 1023.2 in /  34645.6 hPa West 8.0 mph /  12.9 km/h 20.9 mph /  33.6 km/h 97 % 3.3 in /  83.82 mm
05:12 5.8 °F /  -14.6 °C 5.4 °F /  -14.8 °C 1022.9 in /  34635.4 hPa WSW 4.8 mph /  7.7 km/h 20.9 mph /  33.6 km/h 97 % 2.5 in /  63.5 mm
05:17 5.8 °F /  -14.6 °C 5.4 °F /  -14.8 °C 1022.9 in /  34635.4 hPa WSW 12.9 mph /  20.8 km/h 14.5 mph /  23.3 km/h 97 % 2.0 in /  50.8 mm
05:22 5.9 °F /  -14.5 °C 5.5 °F /  -14.7 °C 1022.9 in /  34635.4 hPa SW 9.7 mph /  15.6 km/h 14.5 mph /  23.3 km/h 97 % 2.0 in /  50.8 mm
05:27 6.0 °F /  -14.4 °C 5.6 °F /  -14.7 °C 1022.9 in /  34635.4 hPa SSW 9.7 mph /  15.6 km/h 22.5 mph /  36.2 km/h 97 % 2.3 in /  58.42 mm
05:32 6.1 °F /  -14.4 °C 5.7 °F /  -14.6 °C 1022.6 in /  34625.2 hPa SW 6.4 mph /  10.3 km/h 22.5 mph /  36.2 km/h 97 % 2.3 in /  58.42 mm
05:37 6.1 °F /  -14.4 °C 5.7 °F /  -14.6 °C 1022.6 in /  34625.2 hPa SW 8.0 mph /  12.9 km/h 22.5 mph /  36.2 km/h 97 % 2.3 in /  58.42 mm
05:42 6.1 °F /  -14.4 °C 5.7 °F /  -14.6 °C 1022.6 in /  34625.2 hPa WSW 6.4 mph /  10.3 km/h 22.5 mph /  36.2 km/h 97 % 2.3 in /  58.42 mm
05:47 6.1 °F /  -14.4 °C 5.7 °F /  -14.6 °C 1022.6 in /  34625.2 hPa WSW 3.2 mph /  5.1 km/h 22.5 mph /  36.2 km/h 97 % 2.3 in /  58.42 mm
05:57 6.2 °F /  -14.3 °C 5.8 °F /  -14.6 °C 1022.6 in /  34625.2 hPa WSW 11.3 mph /  18.2 km/h 19.3 mph /  31.1 km/h 97 % 2.3 in /  58.42 mm
06:02 6.2 °F /  -14.3 °C 5.8 °F /  -14.6 °C 1022.6 in /  34625.2 hPa WSW 4.8 mph /  7.7 km/h 19.3 mph /  31.1 km/h 97 % 2.3 in /  58.42 mm
06:07 6.2 °F /  -14.3 °C 5.8 °F /  -14.6 °C 1022.2 in /  34611.7 hPa WSW 3.2 mph /  5.1 km/h 16.1 mph /  25.9 km/h 97 % 2.3 in /  58.42 mm
06:12 6.3 °F /  -14.3 °C 5.9 °F /  -14.5 °C 1022.2 in /  34611.7 hPa West 3.2 mph /  5.1 km/h 16.1 mph /  25.9 km/h 97 % 2.3 in /  58.42 mm
06:22 6.3 °F /  -14.3 °C 5.9 °F /  -14.5 °C 1022.2 in /  34611.7 hPa West 3.2 mph /  5.1 km/h 16.1 mph /  25.9 km/h 97 % 2.3 in /  58.42 mm
06:32 6.4 °F /  -14.2 °C 6.0 °F /  -14.4 °C 1022.2 in /  34611.7 hPa West 6.4 mph /  10.3 km/h 11.3 mph /  18.2 km/h 97 % 1.5 in /  38.1 mm
06:42 6.5 °F /  -14.2 °C 6.1 °F /  -14.4 °C 1022.2 in /  34611.7 hPa West 8.0 mph /  12.9 km/h 11.3 mph /  18.2 km/h 97 % 1.3 in /  33.02 mm
06:47 6.6 °F /  -14.1 °C 6.2 °F /  -14.3 °C 1022.2 in /  34611.7 hPa WSW 8.0 mph /  12.9 km/h 12.9 mph /  20.8 km/h 97 % 1.0 in /  25.4 mm
06:52 6.7 °F /  -14.1 °C 6.3 °F /  -14.3 °C 1022.2 in /  34611.7 hPa WSW 6.4 mph /  10.3 km/h 12.9 mph /  20.8 km/h 97 % 1.0 in /  25.4 mm
06:57 6.7 °F /  -14.1 °C 6.3 °F /  -14.3 °C 1022.2 in /  34611.7 hPa WNW 9.7 mph /  15.6 km/h 14.5 mph /  23.3 km/h 97 % 0.8 in /  20.32 mm
07:02 6.8 °F /  -14 °C 6.4 °F /  -14.2 °C 1022.6 in /  34625.2 hPa West 8.0 mph /  12.9 km/h 14.5 mph /  23.3 km/h 97 % 0.8 in /  20.32 mm
07:12 6.9 °F /  -13.9 °C 6.5 °F /  -14.2 °C 1022.2 in /  34611.7 hPa West 6.4 mph /  10.3 km/h 14.5 mph /  23.3 km/h 97 % 0.5 in /  12.7 mm
07:17 7.1 °F /  -13.8 °C 6.7 °F /  -14.1 °C 1022.2 in /  34611.7 hPa WNW 4.8 mph /  7.7 km/h 14.5 mph /  23.3 km/h 97 % 0.5 in /  12.7 mm
07:22 7.1 °F /  -13.8 °C 6.7 °F /  -14.1 °C 1022.6 in /  34625.2 hPa WNW 6.4 mph /  10.3 km/h 14.5 mph /  23.3 km/h 97 % 0.5 in /  12.7 mm
07:27 7.2 °F /  -13.8 °C 6.8 °F /  -14 °C 1022.6 in /  34625.2 hPa WNW 9.7 mph /  15.6 km/h 11.3 mph /  18.2 km/h 97 % 0.3 in /  7.62 mm
07:32 7.4 °F /  -13.7 °C 7.0 °F /  -13.9 °C 1022.6 in /  34625.2 hPa WNW 4.8 mph /  7.7 km/h 11.3 mph /  18.2 km/h 97 % 0.3 in /  7.62 mm
07:37 7.4 °F /  -13.7 °C 6.8 °F /  -14 °C 1022.2 in /  34611.7 hPa West 3.2 mph /  5.1 km/h 16.1 mph /  25.9 km/h 96 % 0.3 in /  7.62 mm
07:42 7.5 °F /  -13.6 °C 6.9 °F /  -13.9 °C 1022.2 in /  34611.7 hPa WNW 3.2 mph /  5.1 km/h 16.1 mph /  25.9 km/h 96 % 0.3 in /  7.62 mm
07:47 7.5 °F /  -13.6 °C 6.9 °F /  -13.9 °C 1022.2 in /  34611.7 hPa West 3.2 mph /  5.1 km/h 14.5 mph /  23.3 km/h 96 % 0.5 in /  12.7 mm
07:52 7.5 °F /  -13.6 °C 6.9 °F /  -13.9 °C 1022.2 in /  34611.7 hPa Calm   14.5 mph /  23.3 km/h 96 % 0.5 in /  12.7 mm
08:02 7.6 °F /  -13.6 °C 7.0 °F /  -13.9 °C 1022.2 in /  34611.7 hPa WNW 4.8 mph /  7.7 km/h 14.5 mph /  23.3 km/h 96 % 0.5 in /  12.7 mm
08:07 7.7 °F /  -13.5 °C 7.1 °F /  -13.8 °C 1022.2 in /  34611.7 hPa West 1.6 mph /  2.6 km/h 11.3 mph /  18.2 km/h 96 % 0.3 in /  7.62 mm
08:12 7.7 °F /  -13.5 °C 7.1 °F /  -13.8 °C 1022.2 in /  34611.7 hPa WNW 9.7 mph /  15.6 km/h 11.3 mph /  18.2 km/h 96 % 0.3 in /  7.62 mm
08:17 7.8 °F /  -13.4 °C 7.2 °F /  -13.8 °C 1021.9 in /  34601.5 hPa WNW 8.0 mph /  12.9 km/h 11.3 mph /  18.2 km/h 96 % 0.3 in /  7.62 mm
08:22 7.9 °F /  -13.4 °C 7.3 °F /  -13.7 °C 1021.9 in /  34601.5 hPa NW 9.7 mph /  15.6 km/h 11.3 mph /  18.2 km/h 96 % 0.3 in /  7.62 mm
08:27 7.9 °F /  -13.4 °C 7.3 °F /  -13.7 °C 1022.2 in /  34611.7 hPa NW 1.6 mph /  2.6 km/h 12.9 mph /  20.8 km/h 96 % 0.3 in /  7.62 mm
08:32 8.1 °F /  -13.3 °C 7.5 °F /  -13.6 °C 1022.2 in /  34611.7 hPa WNW 6.4 mph /  10.3 km/h 12.9 mph /  20.8 km/h 96 % 0.3 in /  7.62 mm
08:37 8.2 °F /  -13.2 °C 7.6 °F /  -13.6 °C 1022.2 in /  34611.7 hPa WNW 12.9 mph /  20.8 km/h 17.7 mph /  28.5 km/h 96 % 0.3 in /  7.62 mm
08:42 8.2 °F /  -13.2 °C 7.6 °F /  -13.6 °C 1022.6 in /  34625.2 hPa NNW 1.6 mph /  2.6 km/h 17.7 mph /  28.5 km/h 96 % 0.3 in /  7.62 mm
08:47 8.3 °F /  -13.2 °C 7.5 °F /  -13.6 °C 1022.6 in /  34625.2 hPa NW 4.8 mph /  7.7 km/h 19.3 mph /  31.1 km/h 95 % 0.0 in /  0 mm
08:52 8.3 °F /  -13.2 °C 7.5 °F /  -13.6 °C 1022.6 in /  34625.2 hPa NNW 6.4 mph /  10.3 km/h 19.3 mph /  31.1 km/h 95 % 0.0 in /  0 mm
08:57 8.3 °F /  -13.2 °C 7.5 °F /  -13.6 °C 1022.6 in /  34625.2 hPa WNW 6.4 mph /  10.3 km/h 16.1 mph /  25.9 km/h 95 % 0.0 in /  0 mm
09:02 8.4 °F /  -13.1 °C 7.6 °F /  -13.6 °C 1022.6 in /  34625.2 hPa NNW 4.8 mph /  7.7 km/h 16.1 mph /  25.9 km/h 95 % 0.0 in /  0 mm
09:12 8.5 °F /  -13.1 °C 7.7 °F /  -13.5 °C 1022.6 in /  34625.2 hPa NW 9.7 mph /  15.6 km/h 19.3 mph /  31.1 km/h 95 % 0.0 in /  0 mm
09:17 8.5 °F /  -13.1 °C 7.7 °F /  -13.5 °C 1022.6 in /  34625.2 hPa North 12.9 mph /  20.8 km/h 19.3 mph /  31.1 km/h 95 % 0.0 in /  0 mm
09:22 8.6 °F /  -13 °C 7.7 °F /  -13.5 °C 1022.9 in /  34635.4 hPa North 6.4 mph /  10.3 km/h 19.3 mph /  31.1 km/h 94 % 0.0 in /  0 mm
09:27 8.5 °F /  -13.1 °C 7.6 °F /  -13.6 °C 1022.9 in /  34635.4 hPa NW 6.4 mph /  10.3 km/h 22.5 mph /  36.2 km/h 94 % 0.0 in /  0 mm
09:32 8.6 °F /  -13 °C 7.7 °F /  -13.5 °C 1022.9 in /  34635.4 hPa NW 14.5 mph /  23.3 km/h 22.5 mph /  36.2 km/h 94 % 0.0 in /  0 mm
09:42 8.6 °F /  -13 °C 7.7 °F /  -13.5 °C 1022.9 in /  34635.4 hPa WNW 4.8 mph /  7.7 km/h 19.3 mph /  31.1 km/h 94 % 0.0 in /  0 mm
09:52 8.6 °F /  -13 °C 7.5 °F /  -13.6 °C 1022.9 in /  34635.4 hPa NNW 16.1 mph /  25.9 km/h 19.3 mph /  31.1 km/h 93 % 0.0 in /  0 mm
09:57 8.6 °F /  -13 °C 7.5 °F /  -13.6 °C 1023.2 in /  34645.6 hPa West 3.2 mph /  5.1 km/h 22.5 mph /  36.2 km/h 93 % 0.0 in /  0 mm
10:02 8.6 °F /  -13 °C 7.4 °F /  -13.7 °C 1023.2 in /  34645.6 hPa NW 17.7 mph /  28.5 km/h 22.5 mph /  36.2 km/h 92 % 0.0 in /  0 mm
10:12 8.5 °F /  -13.1 °C 7.1 °F /  -13.8 °C 1023.2 in /  34645.6 hPa North 17.7 mph /  28.5 km/h 25.7 mph /  41.4 km/h 91 % 0.0 in /  0 mm
10:17 8.5 °F /  -13.1 °C 7.1 °F /  -13.8 °C 1023.2 in /  34645.6 hPa NNW 11.3 mph /  18.2 km/h 24.1 mph /  38.8 km/h 91 % 0.0 in /  0 mm
10:22 8.5 °F /  -13.1 °C 7.1 °F /  -13.8 °C 1023.2 in /  34645.6 hPa NE 20.9 mph /  33.6 km/h 24.1 mph /  38.8 km/h 91 % 0.0 in /  0 mm
10:32 8.4 °F /  -13.1 °C 7.0 °F /  -13.9 °C 1023.6 in /  34659.1 hPa NE 17.7 mph /  28.5 km/h 22.5 mph /  36.2 km/h 91 % 0.0 in /  0 mm
10:37 8.2 °F /  -13.2 °C 6.5 °F /  -14.2 °C 1023.6 in /  34659.1 hPa NNW 22.5 mph /  36.2 km/h 27.4 mph /  44.1 km/h 89 % 0.0 in /  0 mm
10:42 8.1 °F /  -13.3 °C 6.2 °F /  -14.3 °C 1023.6 in /  34659.1 hPa North 12.9 mph /  20.8 km/h 27.4 mph /  44.1 km/h 88 % 0.0 in /  0 mm
10:52 7.8 °F /  -13.4 °C 5.8 °F /  -14.6 °C 1023.9 in /  34669.3 hPa North 12.9 mph /  20.8 km/h 35.4 mph /  57 km/h 87 % 0.0 in /  0 mm
11:02 7.8 °F /  -13.4 °C 5.6 °F /  -14.7 °C 1024.3 in /  34682.8 hPa NE 22.5 mph /  36.2 km/h 29.0 mph /  46.7 km/h 86 % 0.0 in /  0 mm
11:12 7.8 °F /  -13.4 °C 5.4 °F /  -14.8 °C 1024.3 in /  34682.8 hPa North 27.4 mph /  44.1 km/h 27.4 mph /  44.1 km/h 85 % 0.0 in /  0 mm
11:17 7.7 °F /  -13.5 °C 5.7 °F /  -14.6 °C 1024.3 in /  34682.8 hPa NNE 11.3 mph /  18.2 km/h 37.0 mph /  59.5 km/h 87 % 0.0 in /  0 mm
11:22 7.7 °F /  -13.5 °C 5.7 °F /  -14.6 °C 1024.3 in /  34682.8 hPa NNE 19.3 mph /  31.1 km/h 37.0 mph /  59.5 km/h 87 % 0.0 in /  0 mm
11:27 7.7 °F /  -13.5 °C 5.7 °F /  -14.6 °C 1024.6 in /  34693 hPa NE 19.3 mph /  31.1 km/h 37.0 mph /  59.5 km/h 87 % 0.0 in /  0 mm
11:32 7.6 °F /  -13.6 °C 5.6 °F /  -14.7 °C 1024.6 in /  34693 hPa North 12.9 mph /  20.8 km/h 37.0 mph /  59.5 km/h 87 % 0.0 in /  0 mm
11:37 7.7 °F /  -13.5 °C 5.7 °F /  -14.6 °C 1024.3 in /  34682.8 hPa NNE 11.3 mph /  18.2 km/h 35.4 mph /  57 km/h 87 % 0.0 in /  0 mm
11:42 7.8 °F /  -13.4 °C 5.8 °F /  -14.6 °C 1024.6 in /  34693 hPa NW 19.3 mph /  31.1 km/h 35.4 mph /  57 km/h 87 % 0.0 in /  0 mm
11:47 7.7 °F /  -13.5 °C 5.5 °F /  -14.7 °C 1024.6 in /  34693 hPa NNW 22.5 mph /  36.2 km/h 27.4 mph /  44.1 km/h 86 % 0.0 in /  0 mm
11:52 7.6 °F /  -13.6 °C 5.4 °F /  -14.8 °C 1024.6 in /  34693 hPa NE 8.0 mph /  12.9 km/h 27.4 mph /  44.1 km/h 86 % 0.0 in /  0 mm
11:57 7.5 °F /  -13.6 °C 5.3 °F /  -14.8 °C 1024.6 in /  34693 hPa NNW 17.7 mph /  28.5 km/h 32.2 mph /  51.8 km/h 86 % 0.0 in /  0 mm
12:07 7.4 °F /  -13.7 °C 5.0 °F /  -15 °C 1024.6 in /  34693 hPa NNW 8.0 mph /  12.9 km/h 32.2 mph /  51.8 km/h 85 % 0.0 in /  0 mm
12:12 7.3 °F /  -13.7 °C 4.8 °F /  -15.1 °C 1024.9 in /  34703.1 hPa NNW 25.7 mph /  41.4 km/h 32.2 mph /  51.8 km/h 84 % 0.0 in /  0 mm
12:17 7.1 °F /  -13.8 °C 4.6 °F /  -15.2 °C 1024.9 in /  34703.1 hPa North 14.5 mph /  23.3 km/h 33.8 mph /  54.4 km/h 84 % 0.0 in /  0 mm
12:22 7.1 °F /  -13.8 °C 4.7 °F /  -15.2 °C 1024.9 in /  34703.1 hPa NNW 16.1 mph /  25.9 km/h 33.8 mph /  54.4 km/h 85 % 0.0 in /  0 mm
12:32 7.3 °F /  -13.7 °C 4.8 °F /  -15.1 °C 1024.9 in /  34703.1 hPa North 17.7 mph /  28.5 km/h 30.6 mph /  49.2 km/h 84 % 0.0 in /  0 mm
12:37 7.0 °F /  -13.9 °C 4.3 °F /  -15.4 °C 1024.9 in /  34703.1 hPa NNE 19.3 mph /  31.1 km/h 32.2 mph /  51.8 km/h 83 % 0.0 in /  0 mm
12:42 6.8 °F /  -14 °C 4.1 °F /  -15.5 °C 1024.9 in /  34703.1 hPa NE 11.3 mph /  18.2 km/h 32.2 mph /  51.8 km/h 83 % 0.0 in /  0 mm
12:47 6.9 °F /  -13.9 °C 4.4 °F /  -15.3 °C 1024.9 in /  34703.1 hPa NNE 9.7 mph /  15.6 km/h 33.8 mph /  54.4 km/h 84 % 0.0 in /  0 mm
12:57 7.1 °F /  -13.8 °C 4.2 °F /  -15.4 °C 1024.9 in /  34703.1 hPa NNW 11.3 mph /  18.2 km/h 27.4 mph /  44.1 km/h 82 % 0.0 in /  0 mm
13:02 7.2 °F /  -13.8 °C 4.2 °F /  -15.4 °C 1024.9 in /  34703.1 hPa North 20.9 mph /  33.6 km/h 27.4 mph /  44.1 km/h 81 % 0.0 in /  0 mm
13:07 7.3 °F /  -13.7 °C 3.9 °F /  -15.6 °C 1024.9 in /  34703.1 hPa North 12.9 mph /  20.8 km/h 25.7 mph /  41.4 km/h 79 % 0.0 in /  0 mm
13:12 7.2 °F /  -13.8 °C 3.1 °F /  -16.1 °C 1024.9 in /  34703.1 hPa ENE 22.5 mph /  36.2 km/h 25.7 mph /  41.4 km/h 75 % 0.0 in /  0 mm
13:17 7.1 °F /  -13.8 °C 3.0 °F /  -16.1 °C 1024.9 in /  34703.1 hPa ENE 12.9 mph /  20.8 km/h 35.4 mph /  57 km/h 75 % 0.0 in /  0 mm
13:22 7.1 °F /  -13.8 °C 3.3 °F /  -15.9 °C 1025.3 in /  34716.7 hPa NNE 14.5 mph /  23.3 km/h 35.4 mph /  57 km/h 77 % 0.0 in /  0 mm
13:27 7.2 °F /  -13.8 °C 3.1 °F /  -16.1 °C 1024.9 in /  34703.1 hPa NE 22.5 mph /  36.2 km/h 35.4 mph /  57 km/h 75 % 0.0 in /  0 mm
13:32 7.1 °F /  -13.8 °C 3.3 °F /  -15.9 °C 1025.3 in /  34716.7 hPa NNW 8.0 mph /  12.9 km/h 35.4 mph /  57 km/h 77 % 0.0 in /  0 mm
13:37 7.1 °F /  -13.8 °C 3.2 °F /  -16 °C 1025.3 in /  34716.7 hPa NW 12.9 mph /  20.8 km/h 32.2 mph /  51.8 km/h 76 % 0.0 in /  0 mm
13:42 7.1 °F /  -13.8 °C 3.3 °F /  -15.9 °C 1025.3 in /  34716.7 hPa NE 16.1 mph /  25.9 km/h 32.2 mph /  51.8 km/h 77 % 0.0 in /  0 mm
13:52 6.9 °F /  -13.9 °C 3.1 °F /  -16.1 °C 1025.3 in /  34716.7 hPa NNE 24.1 mph /  38.8 km/h 33.8 mph /  54.4 km/h 77 % 0.0 in /  0 mm
13:57 7.0 °F /  -13.9 °C 3.4 °F /  -15.9 °C 1025.3 in /  34716.7 hPa NNW 12.9 mph /  20.8 km/h 35.4 mph /  57 km/h 78 % 0.0 in /  0 mm
14:02 7.0 °F /  -13.9 °C 3.1 °F /  -16.1 °C 1025.3 in /  34716.7 hPa NNE 14.5 mph /  23.3 km/h 35.4 mph /  57 km/h 76 % 0.0 in /  0 mm
14:12 6.9 °F /  -13.9 °C 3.3 °F /  -15.9 °C 1025.3 in /  34716.7 hPa NW 8.0 mph /  12.9 km/h 35.4 mph /  57 km/h 78 % 0.0 in /  0 mm
14:17 6.9 °F /  -13.9 °C 3.1 °F /  -16.1 °C 1025.3 in /  34716.7 hPa NNE 12.9 mph /  20.8 km/h 33.8 mph /  54.4 km/h 77 % 0.0 in /  0 mm
14:27 6.9 °F /  -13.9 °C 3.5 °F /  -15.8 °C 1025.3 in /  34716.7 hPa North 22.5 mph /  36.2 km/h 24.1 mph /  38.8 km/h 79 % 0.0 in /  0 mm
14:32 6.8 °F /  -14 °C 3.2 °F /  -16 °C 1025.3 in /  34716.7 hPa NNW 14.5 mph /  23.3 km/h 24.1 mph /  38.8 km/h 78 % 0.0 in /  0 mm
14:42 6.8 °F /  -14 °C 3.4 °F /  -15.9 °C 1025.6 in /  34726.8 hPa NE 20.9 mph /  33.6 km/h 33.8 mph /  54.4 km/h 79 % 0.0 in /  0 mm
14:47 6.9 °F /  -13.9 °C 3.7 °F /  -15.7 °C 1025.6 in /  34726.8 hPa NW 9.7 mph /  15.6 km/h 30.6 mph /  49.2 km/h 80 % 0.0 in /  0 mm
14:52 6.8 °F /  -14 °C 3.4 °F /  -15.9 °C 1025.6 in /  34726.8 hPa North 16.1 mph /  25.9 km/h 30.6 mph /  49.2 km/h 79 % 0.0 in /  0 mm
14:57 6.7 °F /  -14.1 °C 3.3 °F /  -15.9 °C 1026.0 in /  34740.4 hPa NE 19.3 mph /  31.1 km/h 33.8 mph /  54.4 km/h 79 % 0.0 in /  0 mm
15:02 6.4 °F /  -14.2 °C 3.4 °F /  -15.9 °C 1026.0 in /  34740.4 hPa NE 12.9 mph /  20.8 km/h 33.8 mph /  54.4 km/h 81 % 0.0 in /  0 mm
15:12 6.1 °F /  -14.4 °C 3.1 °F /  -16.1 °C 1026.0 in /  34740.4 hPa NE 19.3 mph /  31.1 km/h 33.8 mph /  54.4 km/h 81 % 0.0 in /  0 mm
15:17 5.9 °F /  -14.5 °C 3.4 °F /  -15.9 °C 1026.3 in /  34750.5 hPa NNE 12.9 mph /  20.8 km/h 30.6 mph /  49.2 km/h 84 % 0.0 in /  0 mm
15:22 5.8 °F /  -14.6 °C 3.5 °F /  -15.8 °C 1026.3 in /  34750.5 hPa NNE 11.3 mph /  18.2 km/h 30.6 mph /  49.2 km/h 85 % 0.0 in /  0 mm
15:32 5.9 °F /  -14.5 °C 3.9 °F /  -15.6 °C 1026.6 in /  34760.7 hPa North 9.7 mph /  15.6 km/h 25.7 mph /  41.4 km/h 87 % 0.0 in /  0 mm
15:37 5.9 °F /  -14.5 °C 3.7 °F /  -15.7 °C 1026.6 in /  34760.7 hPa NNE 4.8 mph /  7.7 km/h 20.9 mph /  33.6 km/h 86 % 0.0 in /  0 mm
15:42 6.0 °F /  -14.4 °C 3.7 °F /  -15.7 °C 1026.6 in /  34760.7 hPa North 9.7 mph /  15.6 km/h 20.9 mph /  33.6 km/h 85 % 0.0 in /  0 mm
15:52 5.9 °F /  -14.5 °C 3.7 °F /  -15.7 °C 1026.6 in /  34760.7 hPa NNE 8.0 mph /  12.9 km/h 24.1 mph /  38.8 km/h 86 % 0.0 in /  0 mm
15:57 6.0 °F /  -14.4 °C 3.8 °F /  -15.7 °C 1026.6 in /  34760.7 hPa NNW 9.7 mph /  15.6 km/h 19.3 mph /  31.1 km/h 86 % 0.0 in /  0 mm
16:02 6.1 °F /  -14.4 °C 3.9 °F /  -15.6 °C 1026.6 in /  34760.7 hPa NNW 12.9 mph /  20.8 km/h 19.3 mph /  31.1 km/h 86 % 0.0 in /  0 mm
16:07 6.1 °F /  -14.4 °C 3.9 °F /  -15.6 °C 1026.6 in /  34760.7 hPa North 14.5 mph /  23.3 km/h 24.1 mph /  38.8 km/h 86 % 0.0 in /  0 mm
16:12 6.1 °F /  -14.4 °C 3.9 °F /  -15.6 °C 1027.0 in /  34774.2 hPa North 9.7 mph /  15.6 km/h 24.1 mph /  38.8 km/h 86 % 0.0 in /  0 mm
16:22 5.9 °F /  -14.5 °C 3.7 °F /  -15.7 °C 1027.3 in /  34784.4 hPa NNE 17.7 mph /  28.5 km/h 20.9 mph /  33.6 km/h 86 % 0.0 in /  0 mm
16:27 5.9 °F /  -14.5 °C 3.7 °F /  -15.7 °C 1027.3 in /  34784.4 hPa NNE 4.8 mph /  7.7 km/h 25.7 mph /  41.4 km/h 86 % 0.0 in /  0 mm
16:32 5.9 °F /  -14.5 °C 3.9 °F /  -15.6 °C 1027.3 in /  34784.4 hPa NNW 14.5 mph /  23.3 km/h 25.7 mph /  41.4 km/h 87 % 0.0 in /  0 mm
16:42 5.9 °F /  -14.5 °C 3.9 °F /  -15.6 °C 1027.3 in /  34784.4 hPa NNW 9.7 mph /  15.6 km/h 24.1 mph /  38.8 km/h 87 % 0.0 in /  0 mm
16:47 5.9 °F /  -14.5 °C 3.9 °F /  -15.6 °C 1027.7 in /  34797.9 hPa NW 3.2 mph /  5.1 km/h 24.1 mph /  38.8 km/h 87 % 0.0 in /  0 mm
16:57 5.9 °F /  -14.5 °C 3.9 °F /  -15.6 °C 1027.7 in /  34797.9 hPa NE 3.2 mph /  5.1 km/h 22.5 mph /  36.2 km/h 87 % 0.0 in /  0 mm
17:02 5.9 °F /  -14.5 °C 3.9 °F /  -15.6 °C 1027.7 in /  34797.9 hPa NE 11.3 mph /  18.2 km/h 22.5 mph /  36.2 km/h 87 % 0.0 in /  0 mm
17:12 5.9 °F /  -14.5 °C 3.9 °F /  -15.6 °C 1027.7 in /  34797.9 hPa NNE 9.7 mph /  15.6 km/h 19.3 mph /  31.1 km/h 87 % 0.0 in /  0 mm
17:17 5.9 °F /  -14.5 °C 3.9 °F /  -15.6 °C 1027.7 in /  34797.9 hPa NNE 1.6 mph /  2.6 km/h 20.9 mph /  33.6 km/h 87 % 0.0 in /  0 mm
17:22 5.8 °F /  -14.6 °C 3.8 °F /  -15.7 °C 1028.0 in /  34808.1 hPa NNW 4.8 mph /  7.7 km/h 20.9 mph /  33.6 km/h 87 % 0.0 in /  0 mm
17:32 5.8 °F /  -14.6 °C 3.8 °F /  -15.7 °C 1027.7 in /  34797.9 hPa NNW 9.7 mph /  15.6 km/h 20.9 mph /  33.6 km/h 87 % 0.0 in /  0 mm
17:37 5.7 °F /  -14.6 °C 3.7 °F /  -15.7 °C 1027.7 in /  34797.9 hPa NNW 6.4 mph /  10.3 km/h 17.7 mph /  28.5 km/h 87 % 0.0 in /  0 mm
17:47 5.7 °F /  -14.6 °C 3.7 °F /  -15.7 °C 1028.0 in /  34808.1 hPa NNE 12.9 mph /  20.8 km/h 17.7 mph /  28.5 km/h 87 % 0.0 in /  0 mm
17:52 5.7 °F /  -14.6 °C 3.9 °F /  -15.6 °C 1028.0 in /  34808.1 hPa North 8.0 mph /  12.9 km/h 17.7 mph /  28.5 km/h 88 % 0.0 in /  0 mm
17:57 5.7 °F /  -14.6 °C 3.9 °F /  -15.6 °C 1028.3 in /  34818.2 hPa North 9.7 mph /  15.6 km/h 17.7 mph /  28.5 km/h 88 % 0.0 in /  0 mm
18:02 5.7 °F /  -14.6 °C 3.9 °F /  -15.6 °C 1028.3 in /  34818.2 hPa North 4.8 mph /  7.7 km/h 17.7 mph /  28.5 km/h 88 % 0.0 in /  0 mm
18:07 5.7 °F /  -14.6 °C 3.9 °F /  -15.6 °C 1028.3 in /  34818.2 hPa NNE 16.1 mph /  25.9 km/h 24.1 mph /  38.8 km/h 88 % 0.0 in /  0 mm
18:12 5.7 °F /  -14.6 °C 3.9 °F /  -15.6 °C 1028.7 in /  34831.8 hPa NNE 14.5 mph /  23.3 km/h 20.9 mph /  33.6 km/h 88 % 0.0 in /  0 mm
18:17 5.7 °F /  -14.6 °C 3.7 °F /  -15.7 °C 1028.7 in /  34831.8 hPa NNW 12.9 mph /  20.8 km/h 20.9 mph /  33.6 km/h 87 % 0.0 in /  0 mm
18:22 5.8 °F /  -14.6 °C 3.8 °F /  -15.7 °C 1028.7 in /  34831.8 hPa North 14.5 mph /  23.3 km/h 22.5 mph /  36.2 km/h 87 % 0.0 in /  0 mm
18:32 5.8 °F /  -14.6 °C 3.8 °F /  -15.7 °C 1028.3 in /  34818.2 hPa North 3.2 mph /  5.1 km/h 22.5 mph /  36.2 km/h 87 % 0.0 in /  0 mm
18:42 5.7 °F /  -14.6 °C 3.7 °F /  -15.7 °C 1028.7 in /  34831.8 hPa NNW 11.3 mph /  18.2 km/h 22.5 mph /  36.2 km/h 87 % 0.0 in /  0 mm
18:47 5.7 °F /  -14.6 °C 3.7 °F /  -15.7 °C 1028.7 in /  34831.8 hPa North 12.9 mph /  20.8 km/h 17.7 mph /  28.5 km/h 87 % 0.0 in /  0 mm
18:52 5.7 °F /  -14.6 °C 3.7 °F /  -15.7 °C 1028.7 in /  34831.8 hPa NNW 14.5 mph /  23.3 km/h 17.7 mph /  28.5 km/h 87 % 0.0 in /  0 mm
18:57 5.7 °F /  -14.6 °C 3.7 °F /  -15.7 °C 1028.7 in /  34831.8 hPa NE 4.8 mph /  7.7 km/h 20.9 mph /  33.6 km/h 87 % 0.0 in /  0 mm
19:02 5.7 °F /  -14.6 °C 3.7 °F /  -15.7 °C 1028.7 in /  34831.8 hPa NNW 6.4 mph /  10.3 km/h 20.9 mph /  33.6 km/h 87 % 0.0 in /  0 mm
19:07 5.7 °F /  -14.6 °C 3.7 °F /  -15.7 °C 1029.0 in /  34841.9 hPa NNE 8.0 mph /  12.9 km/h 20.9 mph /  33.6 km/h 87 % 0.0 in /  0 mm
19:12 5.7 °F /  -14.6 °C 3.7 °F /  -15.7 °C 1029.0 in /  34841.9 hPa NNE 9.7 mph /  15.6 km/h 20.9 mph /  33.6 km/h 87 % 0.0 in /  0 mm
19:17 5.7 °F /  -14.6 °C 3.7 °F /  -15.7 °C 1029.0 in /  34841.9 hPa NNE 6.4 mph /  10.3 km/h 20.9 mph /  33.6 km/h 87 % 0.0 in /  0 mm
19:22 5.7 °F /  -14.6 °C 3.9 °F /  -15.6 °C 1029.3 in /  34852.1 hPa North 9.7 mph /  15.6 km/h 20.9 mph /  33.6 km/h 88 % 0.0 in /  0 mm
19:32 5.7 °F /  -14.6 °C 3.9 °F /  -15.6 °C 1029.3 in /  34852.1 hPa NE 9.7 mph /  15.6 km/h 17.7 mph /  28.5 km/h 88 % 0.0 in /  0 mm
19:42 5.7 °F /  -14.6 °C 3.9 °F /  -15.6 °C 1029.3 in /  34852.1 hPa NW 3.2 mph /  5.1 km/h 19.3 mph /  31.1 km/h 88 % 0.0 in /  0 mm
19:47 5.7 °F /  -14.6 °C 3.9 °F /  -15.6 °C 1029.3 in /  34852.1 hPa NNW 4.8 mph /  7.7 km/h 19.3 mph /  31.1 km/h 88 % 0.0 in /  0 mm
19:52 5.6 °F /  -14.7 °C 3.8 °F /  -15.7 °C 1029.7 in /  34865.6 hPa NNE 3.2 mph /  5.1 km/h 19.3 mph /  31.1 km/h 88 % 0.0 in /  0 mm
19:57 5.7 °F /  -14.6 °C 3.9 °F /  -15.6 °C 1029.7 in /  34865.6 hPa NNE 4.8 mph /  7.7 km/h 19.3 mph /  31.1 km/h 88 % 0.0 in /  0 mm
20:02 5.7 °F /  -14.6 °C 3.9 °F /  -15.6 °C 1029.7 in /  34865.6 hPa ENE 1.6 mph /  2.6 km/h 19.3 mph /  31.1 km/h 88 % 0.0 in /  0 mm
20:12 5.7 °F /  -14.6 °C 3.9 °F /  -15.6 °C 1029.7 in /  34865.6 hPa NNE 6.4 mph /  10.3 km/h 19.3 mph /  31.1 km/h 88 % 0.0 in /  0 mm
20:17 5.7 °F /  -14.6 °C 3.9 °F /  -15.6 °C 1030.0 in /  34875.8 hPa NW 3.2 mph /  5.1 km/h 16.1 mph /  25.9 km/h 88 % 0.0 in /  0 mm
20:22 5.6 °F /  -14.7 °C 3.8 °F /  -15.7 °C 1030.0 in /  34875.8 hPa NE 8.0 mph /  12.9 km/h 16.1 mph /  25.9 km/h 88 % 0.0 in /  0 mm
20:32 5.6 °F /  -14.7 °C 3.8 °F /  -15.7 °C 1030.0 in /  34875.8 hPa North 3.2 mph /  5.1 km/h 12.9 mph /  20.8 km/h 88 % 0.0 in /  0 mm
20:42 5.6 °F /  -14.7 °C 3.9 °F /  -15.6 °C 1030.4 in /  34889.3 hPa NNE 3.2 mph /  5.1 km/h 16.1 mph /  25.9 km/h 89 % 0.0 in /  0 mm
20:52 5.5 °F /  -14.7 °C 3.8 °F /  -15.7 °C 1030.4 in /  34889.3 hPa NNE 4.8 mph /  7.7 km/h 16.1 mph /  25.9 km/h 89 % 0.0 in /  0 mm
20:57 5.5 °F /  -14.7 °C 3.8 °F /  -15.7 °C 1030.4 in /  34889.3 hPa NNE 6.4 mph /  10.3 km/h 16.1 mph /  25.9 km/h 89 % 0.0 in /  0 mm
21:02 5.4 °F /  -14.8 °C 3.7 °F /  -15.7 °C 1030.4 in /  34889.3 hPa ENE 6.4 mph /  10.3 km/h 16.1 mph /  25.9 km/h 89 % 0.0 in /  0 mm
21:07 5.4 °F /  -14.8 °C 3.7 °F /  -15.7 °C 1030.4 in /  34889.3 hPa ENE 4.8 mph /  7.7 km/h 12.9 mph /  20.8 km/h 89 % 0.0 in /  0 mm
21:17 5.4 °F /  -14.8 °C 3.7 °F /  -15.7 °C 1030.4 in /  34889.3 hPa North 9.7 mph /  15.6 km/h 16.1 mph /  25.9 km/h 89 % 0.0 in /  0 mm
21:22 5.5 °F /  -14.7 °C 3.8 °F /  -15.7 °C 1030.4 in /  34889.3 hPa NNE 3.2 mph /  5.1 km/h 16.1 mph /  25.9 km/h 89 % 0.0 in /  0 mm
21:27 5.5 °F /  -14.7 °C 3.8 °F /  -15.7 °C 1030.4 in /  34889.3 hPa NE 8.0 mph /  12.9 km/h 16.1 mph /  25.9 km/h 89 % 0.0 in /  0 mm
21:32 5.4 °F /  -14.8 °C 3.7 °F /  -15.7 °C 1030.4 in /  34889.3 hPa North 4.8 mph /  7.7 km/h 16.1 mph /  25.9 km/h 89 % 0.0 in /  0 mm
21:42 5.5 °F /  -14.7 °C 3.7 °F /  -15.7 °C 1030.7 in /  34899.5 hPa NNW 8.0 mph /  12.9 km/h 14.5 mph /  23.3 km/h 88 % 0.0 in /  0 mm
21:52 5.5 °F /  -14.7 °C 3.7 °F /  -15.7 °C 1030.7 in /  34899.5 hPa NE 6.4 mph /  10.3 km/h 19.3 mph /  31.1 km/h 88 % 0.0 in /  0 mm
21:57 5.5 °F /  -14.7 °C 3.7 °F /  -15.7 °C 1030.7 in /  34899.5 hPa North 1.6 mph /  2.6 km/h 19.3 mph /  31.1 km/h 88 % 0.0 in /  0 mm
22:02 5.5 °F /  -14.7 °C 3.7 °F /  -15.7 °C 1030.7 in /  34899.5 hPa NE 9.7 mph /  15.6 km/h 19.3 mph /  31.1 km/h 88 % 0.0 in /  0 mm
22:12 5.4 °F /  -14.8 °C 3.7 °F /  -15.7 °C 1030.7 in /  34899.5 hPa NNW 1.6 mph /  2.6 km/h 12.9 mph /  20.8 km/h 89 % 0.0 in /  0 mm
22:17 5.4 °F /  -14.8 °C 3.7 °F /  -15.7 °C 1030.7 in /  34899.5 hPa NNE 4.8 mph /  7.7 km/h 12.9 mph /  20.8 km/h 89 % 0.0 in /  0 mm
22:22 5.4 °F /  -14.8 °C 3.7 °F /  -15.7 °C 1030.7 in /  34899.5 hPa North 11.3 mph /  18.2 km/h 12.9 mph /  20.8 km/h 89 % 0.0 in /  0 mm
22:32 5.4 °F /  -14.8 °C 3.7 °F /  -15.7 °C 1030.7 in /  34899.5 hPa North 9.7 mph /  15.6 km/h 16.1 mph /  25.9 km/h 89 % 0.0 in /  0 mm
22:42 5.4 °F /  -14.8 °C 3.7 °F /  -15.7 °C 1031.0 in /  34909.7 hPa ENE 9.7 mph /  15.6 km/h 17.7 mph /  28.5 km/h 89 % 0.0 in /  0 mm
22:47 5.4 °F /  -14.8 °C 3.7 °F /  -15.7 °C 1031.0 in /  34909.7 hPa NNW 6.4 mph /  10.3 km/h 12.9 mph /  20.8 km/h 89 % 0.0 in /  0 mm
22:52 5.4 °F /  -14.8 °C 3.7 °F /  -15.7 °C 1031.0 in /  34909.7 hPa North 6.4 mph /  10.3 km/h 12.9 mph /  20.8 km/h 89 % 0.0 in /  0 mm
23:02 5.4 °F /  -14.8 °C 3.6 °F /  -15.8 °C 1031.0 in /  34909.7 hPa North 3.2 mph /  5.1 km/h 14.5 mph /  23.3 km/h 88 % 0.0 in /  0 mm
23:12 5.4 °F /  -14.8 °C 3.4 °F /  -15.9 °C 1031.4 in /  34923.2 hPa NNE 1.6 mph /  2.6 km/h 11.3 mph /  18.2 km/h 87 % 0.0 in /  0 mm
23:17 5.5 °F /  -14.7 °C 3.3 °F /  -15.9 °C 1031.4 in /  34923.2 hPa NNE 6.4 mph /  10.3 km/h 11.3 mph /  18.2 km/h 86 % 0.0 in /  0 mm
23:22 5.6 °F /  -14.7 °C 3.4 °F /  -15.9 °C 1031.4 in /  34923.2 hPa NNE 8.0 mph /  12.9 km/h 11.3 mph /  18.2 km/h 86 % 0.0 in /  0 mm
23:32 5.6 °F /  -14.7 °C 3.3 °F /  -15.9 °C 1031.7 in /  34933.4 hPa North 3.2 mph /  5.1 km/h 14.5 mph /  23.3 km/h 85 % 0.0 in /  0 mm
23:37 5.6 °F /  -14.7 °C 3.3 °F /  -15.9 °C 1031.7 in /  34933.4 hPa NNW 9.7 mph /  15.6 km/h 14.5 mph /  23.3 km/h 85 % 0.0 in /  0 mm
23:42 5.6 °F /  -14.7 °C 3.3 °F /  -15.9 °C 1032.1 in /  34946.9 hPa NE 3.2 mph /  5.1 km/h 14.5 mph /  23.3 km/h 85 % 0.0 in /  0 mm
23:52 5.6 °F /  -14.7 °C 3.3 °F /  -15.9 °C 1032.1 in /  34946.9 hPa North 6.4 mph /  10.3 km/h 11.3 mph /  18.2 km/h 85 % 0.0 in /  0 mm
23:57 5.6 °F /  -14.7 °C 3.3 °F /  -15.9 °C 1032.1 in /  34946.9 hPa NNE 4.8 mph /  7.7 km/h 11.3 mph /  18.2 km/h 85 % 0.0 in /  0 mm
Meteo18
Compliments of Weather Underground - 4 mb

Script developed by  Jim McMurry - jmcmurry@mwt.net Adapted for the template by  Wim van der Kuil - Leuven-Template.eu

You find our weather info also at:

European Weather Network

Weather Underground

Equipment we use:

Weather-station
Davis Vue

Weather-program
Meteobridge

Weather-server
Raspberry PI 2 B+

Provider
1 and 1

Davis Vue

Meteobridge

Raspberry PI 2 B+

1 and 1